createdAt,value
2023-10-30T00:00:49.676Z,99653.66
2023-10-30T00:03:17.994Z,99651.88
2023-10-30T00:05:46.267Z,99652.88
2023-10-30T00:08:14.475Z,99659.47
2023-10-30T00:10:44.001Z,99664.19
2023-10-30T00:13:12.176Z,99658.75
2023-10-30T00:15:40.411Z,99656.72
2023-10-30T00:18:08.802Z,99658.66
2023-10-30T00:20:38.055Z,99653.97
2023-10-30T00:23:06.257Z,99653.38
2023-10-30T00:25:34.533Z,99657.00
2023-10-30T00:28:04.298Z,99662.53
2023-10-30T00:30:32.735Z,99663.72
2023-10-30T00:33:01.278Z,99677.16
2023-10-30T00:35:29.531Z,99671.47
2023-10-30T00:37:57.739Z,99668.81
2023-10-30T00:40:27.410Z,99661.34
2023-10-30T00:42:55.615Z,99644.41
2023-10-30T00:45:25.176Z,99655.72
2023-10-30T00:47:53.404Z,99659.81
2023-10-30T00:50:21.627Z,99659.72
2023-10-30T00:52:49.832Z,99656.16
2023-10-30T00:55:18.162Z,99660.19
2023-10-30T00:57:46.565Z,99656.16
2023-10-30T01:00:16.401Z,99649.91
2023-10-30T01:02:46.422Z,99659.09
2023-10-30T01:05:15.066Z,99663.91
2023-10-30T01:07:43.409Z,99674.44
2023-10-30T01:10:12.336Z,99670.06
2023-10-30T01:12:40.543Z,99666.25
2023-10-30T01:15:10.250Z,99673.72
2023-10-30T01:17:38.538Z,99660.00
2023-10-30T01:20:09.521Z,99667.47
2023-10-30T01:22:37.834Z,99667.69
2023-10-30T01:25:06.382Z,99649.09
2023-10-30T01:27:34.707Z,99647.88
2023-10-30T01:30:02.978Z,99649.81
2023-10-30T01:32:31.545Z,99658.78
2023-10-30T01:35:00.338Z,99669.47
2023-10-30T01:37:29.970Z,99666.81
2023-10-30T01:39:58.206Z,99661.38
2023-10-30T01:42:26.412Z,99657.34
2023-10-30T01:44:56.004Z,99650.97
2023-10-30T01:47:24.546Z,99670.31
2023-10-30T01:49:54.168Z,99670.06
2023-10-30T01:52:22.905Z,99676.47
2023-10-30T01:54:53.129Z,99676.84
2023-10-30T01:57:23.094Z,99687.03
2023-10-30T01:59:52.509Z,99682.88
2023-10-30T02:02:21.894Z,99682.88
2023-10-30T02:04:50.615Z,99682.66
2023-10-30T02:07:20.972Z,99688.69
2023-10-30T02:09:49.308Z,99698.06
2023-10-30T02:12:19.166Z,99695.63
2023-10-30T02:14:47.407Z,99705.06
2023-10-30T02:17:15.657Z,99701.66
2023-10-30T02:19:43.872Z,99691.97
2023-10-30T02:22:12.355Z,99695.16
2023-10-30T02:24:40.601Z,99695.22
2023-10-30T02:27:10.922Z,99697.81
2023-10-30T02:29:39.296Z,99691.41
2023-10-30T02:32:08.216Z,99684.13
2023-10-30T02:34:36.444Z,99687.25
2023-10-30T02:37:05.172Z,99683.78
2023-10-30T02:39:35.693Z,99682.88
2023-10-30T02:42:05.684Z,99671.47
2023-10-30T02:44:36.143Z,99683.44
2023-10-30T02:47:05.498Z,99683.22
2023-10-30T02:49:34.398Z,99684.47
2023-10-30T02:52:04.354Z,99681.22
2023-10-30T02:54:32.603Z,99672.50
2023-10-30T02:57:03.471Z,99689.41
2023-10-30T02:59:31.698Z,99691.63
2023-10-30T03:02:01.432Z,99689.38
2023-10-30T03:04:29.872Z,99689.03
2023-10-30T03:06:59.727Z,99686.56
2023-10-30T03:09:28.587Z,99689.59
2023-10-30T03:11:56.946Z,99698.91
2023-10-30T03:14:25.874Z,99708.59
2023-10-30T03:16:54.619Z,99715.91
2023-10-30T03:19:24.690Z,99711.44
2023-10-30T03:21:53.021Z,99714.69
2023-10-30T03:24:21.405Z,99722.63
2023-10-30T03:26:51.784Z,99720.22
2023-10-30T03:29:20.139Z,99718.03
2023-10-30T03:31:48.514Z,99719.75
2023-10-30T03:34:17.554Z,99721.16
2023-10-30T03:36:47.220Z,99719.59
2023-10-30T03:39:16.027Z,99708.84
2023-10-30T03:41:45.667Z,99702.38
2023-10-30T03:44:13.922Z,99707.78
2023-10-30T03:46:42.160Z,99719.47
2023-10-30T03:49:12.178Z,99730.88
2023-10-30T03:51:40.441Z,99721.69
2023-10-30T03:54:10.484Z,99719.13
2023-10-30T03:56:38.719Z,99718.03
2023-10-30T03:59:07.290Z,99729.53
2023-10-30T04:01:36.920Z,99734.28
2023-10-30T04:04:07.696Z,99734.09
2023-10-30T04:06:37.387Z,99735.31
2023-10-30T04:09:06.252Z,99728.22
2023-10-30T04:11:36.236Z,99724.22
2023-10-30T04:14:04.529Z,99731.59
2023-10-30T04:16:32.938Z,99723.50
2023-10-30T04:19:02.313Z,99726.66
2023-10-30T04:21:31.096Z,99748.53
2023-10-30T04:23:59.551Z,99743.94
2023-10-30T04:26:28.112Z,99742.38
2023-10-30T04:28:57.695Z,99738.25
2023-10-30T04:31:26.031Z,99742.25
2023-10-30T04:33:54.298Z,99743.38
2023-10-30T04:36:22.882Z,99749.78
2023-10-30T04:38:51.951Z,99752.56
2023-10-30T04:41:20.372Z,99764.91
2023-10-30T04:43:48.669Z,99765.00
2023-10-30T04:46:18.702Z,99766.19
2023-10-30T04:48:46.947Z,99760.06
2023-10-30T04:51:15.196Z,99746.88
2023-10-30T04:53:43.435Z,99747.00
2023-10-30T04:56:11.649Z,99741.94
2023-10-30T04:58:39.880Z,99752.81
2023-10-30T05:01:10.050Z,99764.91
2023-10-30T05:03:39.906Z,99752.09
2023-10-30T05:06:08.374Z,99764.31
2023-10-30T05:08:37.431Z,99761.66
2023-10-30T05:11:05.864Z,99762.53
2023-10-30T05:13:34.121Z,99775.91
2023-10-30T05:16:02.522Z,99771.31
2023-10-30T05:18:31.360Z,99784.81
2023-10-30T05:21:01.054Z,99770.22
2023-10-30T05:23:29.356Z,99783.41
2023-10-30T05:25:57.543Z,99780.84
2023-10-30T05:28:26.858Z,99776.84
2023-10-30T05:30:56.490Z,99774.56
2023-10-30T05:33:24.789Z,99787.84
2023-10-30T05:35:53.380Z,99789.06
2023-10-30T05:38:23.736Z,99794.50
2023-10-30T05:40:52.145Z,99797.16
2023-10-30T05:43:20.529Z,99796.31
2023-10-30T05:45:49.107Z,99805.34
2023-10-30T05:48:17.669Z,99801.00
2023-10-30T05:50:45.925Z,99786.63
2023-10-30T05:53:14.177Z,99786.16
2023-10-30T05:55:44.331Z,99786.50
2023-10-30T05:58:13.293Z,99779.97
2023-10-30T06:00:41.586Z,99792.66
2023-10-30T06:03:10.695Z,99797.03
2023-10-30T06:05:39.004Z,99797.25
2023-10-30T06:08:07.248Z,99816.81
2023-10-30T06:10:35.542Z,99802.69
2023-10-30T06:13:05.182Z,99811.25
2023-10-30T06:15:33.382Z,99818.50
2023-10-30T06:18:04.269Z,99825.88
2023-10-30T06:20:33.035Z,99836.25
2023-10-30T06:23:01.724Z,99832.41
2023-10-30T06:25:29.927Z,99831.94
2023-10-30T06:27:58.117Z,99833.84
2023-10-30T06:30:27.741Z,99825.75
2023-10-30T06:32:56.525Z,99830.56
2023-10-30T06:35:24.807Z,99819.44
2023-10-30T06:37:52.994Z,99824.31
2023-10-30T06:40:21.180Z,99833.69
2023-10-30T06:42:49.427Z,99835.75
2023-10-30T06:45:17.843Z,99826.94
2023-10-30T06:47:47.492Z,99837.31
2023-10-30T06:50:15.840Z,99840.44
2023-10-30T06:52:44.424Z,99843.44
2023-10-30T06:55:12.646Z,99842.31
2023-10-30T06:57:41.167Z,99833.59
2023-10-30T07:00:10.479Z,99825.47
2023-10-30T07:02:38.773Z,99826.06
2023-10-30T07:05:09.216Z,99816.25
2023-10-30T07:07:37.458Z,99823.84
2023-10-30T07:10:06.489Z,99825.53
2023-10-30T07:12:34.792Z,99823.41
2023-10-30T07:15:03.004Z,99828.09
2023-10-30T07:17:31.204Z,99831.34
2023-10-30T07:19:59.456Z,99841.06
2023-10-30T07:22:29.630Z,99829.00
2023-10-30T07:24:58.386Z,99820.09
2023-10-30T07:27:26.657Z,99821.31
2023-10-30T07:29:54.924Z,99831.72
2023-10-30T07:32:23.223Z,99860.66
2023-10-30T07:34:51.435Z,99858.75
2023-10-30T07:37:19.676Z,99837.38
2023-10-30T07:39:49.229Z,99857.72
2023-10-30T07:42:17.733Z,99859.25
2023-10-30T07:44:46.013Z,99866.16
2023-10-30T07:47:14.761Z,99870.22
2023-10-30T07:49:43.214Z,99881.63
2023-10-30T07:52:11.469Z,99877.75
2023-10-30T07:54:39.764Z,99884.78
2023-10-30T07:57:11.155Z,99877.97
2023-10-30T07:59:40.527Z,99878.59
2023-10-30T08:02:10.660Z,99873.75
2023-10-30T08:04:39.136Z,99888.56
2023-10-30T08:07:07.438Z,99877.00
2023-10-30T08:09:35.984Z,99873.34
2023-10-30T08:12:04.575Z,99870.16
2023-10-30T08:14:35.709Z,99864.13
2023-10-30T08:17:06.051Z,99863.28
2023-10-30T08:19:34.282Z,99863.84
2023-10-30T08:22:02.508Z,99862.94
2023-10-30T08:24:30.841Z,99867.75
2023-10-30T08:26:59.078Z,99873.06
2023-10-30T08:29:28.113Z,99875.38
2023-10-30T08:31:57.688Z,99884.09
2023-10-30T08:34:26.002Z,99880.97
2023-10-30T08:36:54.338Z,99888.50
2023-10-30T08:39:22.727Z,99886.06
2023-10-30T08:41:51.519Z,99892.84
2023-10-30T08:44:19.941Z,99886.41
2023-10-30T08:46:48.207Z,99881.13
2023-10-30T08:49:17.893Z,99870.19
2023-10-30T08:51:57.130Z,99878.63
2023-10-30T08:54:29.441Z,99884.66
2023-10-30T08:57:04.015Z,99887.03
2023-10-30T08:59:39.423Z,99884.25
2023-10-30T09:02:08.200Z,99879.75
2023-10-30T09:04:38.301Z,99893.22
2023-10-30T09:07:06.768Z,99913.63
2023-10-30T09:09:35.173Z,99910.66
2023-10-30T09:12:03.548Z,99916.44
2023-10-30T09:14:31.850Z,99916.28
2023-10-30T09:17:00.114Z,99915.97
2023-10-30T09:19:28.467Z,99917.69
2023-10-30T09:21:58.087Z,99913.47
2023-10-30T09:24:28.036Z,99901.78
2023-10-30T09:26:56.478Z,99905.31
2023-10-30T09:29:25.518Z,99900.97
2023-10-30T09:31:53.774Z,99893.94
2023-10-30T09:34:25.051Z,99899.56
2023-10-30T09:36:54.434Z,99901.38
2023-10-30T09:39:24.126Z,99888.19
2023-10-30T09:41:55.945Z,99891.53
2023-10-30T09:44:25.424Z,99889.03
2023-10-30T09:46:54.696Z,99883.66
2023-10-30T09:49:25.168Z,99892.66
2023-10-30T09:51:54.144Z,99891.09
2023-10-30T09:54:24.409Z,99890.84
2023-10-30T09:56:53.095Z,99886.75
2023-10-30T09:59:23.842Z,99889.88
2023-10-30T10:01:52.224Z,99893.22
2023-10-30T10:04:20.716Z,99902.38
2023-10-30T10:06:52.644Z,99903.09
2023-10-30T10:09:22.026Z,99912.94
2023-10-30T10:11:51.874Z,99919.13
2023-10-30T10:14:22.441Z,99916.59
2023-10-30T10:16:51.330Z,99906.31
2023-10-30T10:19:21.375Z,99904.78
2023-10-30T10:21:51.069Z,99918.25
2023-10-30T10:24:33.440Z,99914.19
2023-10-30T10:27:05.320Z,99914.34
2023-10-30T10:29:33.781Z,99905.31
2023-10-30T10:32:02.150Z,99904.75
2023-10-30T10:34:31.988Z,99925.56
2023-10-30T10:37:00.599Z,99915.13
2023-10-30T10:39:29.119Z,99918.50
2023-10-30T10:41:58.260Z,99926.53
2023-10-30T10:44:28.751Z,99923.00
2023-10-30T10:47:00.344Z,99929.09
2023-10-30T10:49:30.867Z,99933.31
2023-10-30T10:52:01.052Z,99944.69
2023-10-30T10:54:36.712Z,99937.94
2023-10-30T10:57:10.631Z,99946.38
2023-10-30T10:59:42.131Z,99943.56
2023-10-30T11:02:12.233Z,99927.78
2023-10-30T11:04:41.316Z,99934.72
2023-10-30T11:07:14.961Z,99941.59
2023-10-30T11:09:50.065Z,99939.75
2023-10-30T11:12:34.050Z,99942.72
2023-10-30T11:15:13.268Z,99929.78
2023-10-30T11:17:41.578Z,99937.25
2023-10-30T11:20:11.229Z,99924.69
2023-10-30T11:22:41.168Z,99923.28
2023-10-30T11:25:45.439Z,99920.22
2023-10-30T11:28:13.734Z,99923.31
2023-10-30T11:30:46.992Z,99922.44
2023-10-30T11:33:22.918Z,99919.78
2023-10-30T11:36:27.962Z,99924.03
2023-10-30T11:39:12.231Z,99914.16
2023-10-30T11:41:45.408Z,99915.09
2023-10-30T11:44:14.607Z,99902.38
2023-10-30T11:46:46.612Z,99905.13
2023-10-30T11:49:15.709Z,99893.94
2023-10-30T11:51:44.918Z,99908.22
2023-10-30T11:54:13.357Z,99911.66
2023-10-30T11:56:49.154Z,99906.75
2023-10-30T11:59:17.551Z,99890.69
2023-10-30T12:01:48.266Z,99906.50
2023-10-30T12:04:22.278Z,99910.75
2023-10-30T12:06:50.946Z,99904.97
2023-10-30T12:09:19.815Z,99896.81
2023-10-30T12:11:50.602Z,99891.19
2023-10-30T12:14:20.598Z,99897.44
2023-10-30T12:16:51.280Z,99889.75
2023-10-30T12:19:21.000Z,99884.88
2023-10-30T12:21:49.937Z,99883.41
2023-10-30T12:24:18.224Z,99888.53
2023-10-30T12:26:48.967Z,99892.41
2023-10-30T12:29:21.881Z,99896.81
2023-10-30T12:31:53.960Z,99893.63
2023-10-30T12:34:25.822Z,99889.63
2023-10-30T12:36:54.619Z,99883.47
2023-10-30T12:39:23.592Z,99897.94
2023-10-30T12:41:56.772Z,99883.63
2023-10-30T12:44:27.505Z,99881.41
2023-10-30T12:46:57.118Z,99879.50
2023-10-30T12:49:25.314Z,99881.81
2023-10-30T12:51:53.964Z,99879.41
2023-10-30T12:54:22.250Z,99871.25
2023-10-30T12:56:50.476Z,99864.28
2023-10-30T12:59:18.678Z,99851.81
2023-10-30T13:01:58.263Z,99851.34
2023-10-30T13:04:29.891Z,99866.94
2023-10-30T13:06:58.424Z,99869.09
2023-10-30T13:09:26.841Z,99867.44
2023-10-30T13:11:55.169Z,99871.25
2023-10-30T13:14:23.376Z,99874.91
2023-10-30T13:16:51.908Z,99864.72
2023-10-30T13:19:20.175Z,99875.16
2023-10-30T13:21:49.763Z,99878.41
2023-10-30T13:24:18.179Z,99878.91
2023-10-30T13:26:46.407Z,99874.44
2023-10-30T13:29:14.657Z,99866.47
2023-10-30T13:31:42.897Z,99868.31
2023-10-30T13:34:11.153Z,99870.41
2023-10-30T13:36:39.517Z,99863.09
2023-10-30T13:39:09.131Z,99863.50
2023-10-30T13:41:37.383Z,99855.75
2023-10-30T13:44:06.339Z,99861.00
2023-10-30T13:46:34.737Z,99863.22
2023-10-30T13:49:03.027Z,99849.94
2023-10-30T13:51:32.119Z,99844.47
2023-10-30T13:54:00.512Z,99839.53
2023-10-30T13:56:30.150Z,99839.69
2023-10-30T13:58:58.392Z,99839.44
2023-10-30T14:01:26.898Z,99821.44
2023-10-30T14:03:55.286Z,99827.38
2023-10-30T14:06:23.571Z,99834.09
2023-10-30T14:08:51.878Z,99823.75
2023-10-30T14:11:20.341Z,99820.13
2023-10-30T14:13:49.855Z,99817.63
2023-10-30T14:16:18.368Z,99814.94
2023-10-30T14:18:46.645Z,99819.31
2023-10-30T14:21:16.418Z,99818.72
2023-10-30T14:23:44.643Z,99809.59
2023-10-30T14:26:13.057Z,99810.63
2023-10-30T14:28:41.272Z,99792.63
2023-10-30T14:31:11.582Z,99793.63
2023-10-30T14:33:40.041Z,99788.88
2023-10-30T14:36:08.955Z,99787.88
2023-10-30T14:38:37.713Z,99783.66
2023-10-30T14:41:05.948Z,99785.34
2023-10-30T14:43:34.175Z,99790.13
2023-10-30T14:46:05.880Z,99785.63
2023-10-30T14:48:35.941Z,99776.78
2023-10-30T14:51:04.447Z,99784.91
2023-10-30T14:53:32.722Z,99785.91
2023-10-30T14:56:01.257Z,99780.28
2023-10-30T14:58:30.191Z,99781.69
2023-10-30T15:00:58.599Z,99780.00
2023-10-30T15:03:26.854Z,99774.50
2023-10-30T15:05:56.491Z,99775.78
2023-10-30T15:08:24.708Z,99775.22
2023-10-30T15:10:53.360Z,99763.13
2023-10-30T15:13:21.670Z,99759.75
2023-10-30T15:15:50.040Z,99767.63
2023-10-30T15:18:18.385Z,99765.38
2023-10-30T15:20:46.645Z,99767.63
2023-10-30T15:23:16.200Z,99757.22
2023-10-30T15:25:44.418Z,99755.97
2023-10-30T15:28:14.173Z,99742.84
2023-10-30T15:30:42.474Z,99752.91
2023-10-30T15:33:12.876Z,99748.31
2023-10-30T15:35:41.074Z,99749.00
2023-10-30T15:38:09.295Z,99747.47
2023-10-30T15:40:39.337Z,99749.41
2023-10-30T15:43:07.837Z,99744.47
2023-10-30T15:45:37.102Z,99750.66
2023-10-30T15:48:41.310Z,99747.16
2023-10-30T15:51:09.634Z,99746.47
2023-10-30T15:58:55.141Z,99755.78
2023-10-30T16:01:23.434Z,99758.66
2023-10-30T16:03:52.237Z,99763.19
2023-10-30T16:06:20.857Z,99764.84
2023-10-30T16:08:50.859Z,99753.69
2023-10-30T16:13:51.615Z,99736.72
2023-10-30T16:16:19.972Z,99735.19
2023-10-30T16:21:19.517Z,99715.72
2023-10-30T16:23:48.306Z,99716.00
2023-10-30T16:26:16.593Z,99724.41
2023-10-30T16:28:44.860Z,99714.44
2023-10-30T16:31:14.503Z,99709.38
2023-10-30T16:33:42.765Z,99705.22
2023-10-30T16:36:11.137Z,99710.38
2023-10-30T16:38:39.358Z,99718.88
2023-10-30T16:41:07.563Z,99705.47
2023-10-30T16:43:35.793Z,99703.91
2023-10-30T16:46:04.111Z,99703.94
2023-10-30T16:48:33.720Z,99703.50
2023-10-30T16:51:02.181Z,99706.72
2023-10-30T16:53:30.434Z,99704.03
2023-10-30T16:55:58.669Z,99706.72
2023-10-30T16:58:27.012Z,99702.91
2023-10-30T17:00:55.231Z,99699.97
2023-10-30T17:03:23.589Z,99686.94
2023-10-30T17:05:53.317Z,99685.50
2023-10-30T17:08:22.257Z,99681.72
2023-10-30T17:10:50.717Z,99675.75
2023-10-30T17:13:19.131Z,99679.38
2023-10-30T17:15:47.494Z,99676.16
2023-10-30T17:18:16.423Z,99673.34
2023-10-30T17:20:46.042Z,99668.88
2023-10-30T17:23:15.761Z,99669.31
2023-10-30T17:25:44.187Z,99660.72
2023-10-30T17:28:12.427Z,99662.53
2023-10-30T17:30:40.651Z,99644.13
2023-10-30T17:33:09.683Z,99643.56
2023-10-30T17:35:37.882Z,99648.44
2023-10-30T17:38:06.538Z,99650.41
2023-10-30T17:40:36.135Z,99654.78
2023-10-30T17:43:04.893Z,99654.66
2023-10-30T17:45:33.123Z,99650.56
2023-10-30T17:48:01.855Z,99651.81
2023-10-30T17:50:30.317Z,99645.72
2023-10-30T17:52:58.680Z,99647.75
2023-10-30T17:55:27.178Z,99648.81
2023-10-30T17:57:56.814Z,99642.56
2023-10-30T18:00:25.226Z,99636.84
2023-10-30T18:02:53.843Z,99622.97
2023-10-30T18:05:22.138Z,99614.25
2023-10-30T18:07:50.942Z,99610.22
2023-10-30T18:10:20.577Z,99614.66
2023-10-30T18:12:48.796Z,99598.81
2023-10-30T18:15:19.706Z,99602.47
2023-10-30T18:17:47.995Z,99603.03
2023-10-30T18:20:16.516Z,99594.78
2023-10-30T18:22:44.984Z,99591.41
2023-10-30T18:25:13.664Z,99579.22
2023-10-30T18:27:42.610Z,99584.31
2023-10-30T18:30:12.646Z,99581.63
2023-10-30T18:32:42.365Z,99573.31
2023-10-30T18:35:10.937Z,99568.88
2023-10-30T18:37:39.284Z,99552.59
2023-10-30T18:40:08.972Z,99544.78
2023-10-30T18:42:37.323Z,99539.88
2023-10-30T18:45:07.315Z,99535.53
2023-10-30T18:47:36.063Z,99528.94
2023-10-30T18:50:06.545Z,99531.88
2023-10-30T18:52:35.164Z,99528.53
2023-10-30T18:55:03.502Z,99524.56
2023-10-30T18:57:31.835Z,99526.81
2023-10-30T19:00:00.345Z,99523.00
2023-10-30T19:02:28.898Z,99514.28
2023-10-30T19:04:57.599Z,99502.94
2023-10-30T19:07:28.278Z,99492.63
2023-10-30T19:09:56.589Z,99488.97
2023-10-30T19:12:24.823Z,99490.94
2023-10-30T19:14:53.083Z,99487.78
2023-10-30T19:17:21.328Z,99492.25
2023-10-30T19:19:49.544Z,99483.72
2023-10-30T19:22:17.875Z,99470.97
2023-10-30T19:24:47.659Z,99471.94
2023-10-30T19:27:16.012Z,99476.72
2023-10-30T19:29:44.270Z,99469.72
2023-10-30T19:32:12.523Z,99460.66
2023-10-30T19:34:40.869Z,99452.59
2023-10-30T19:37:09.218Z,99454.78
2023-10-30T19:39:37.540Z,99459.00
2023-10-30T19:42:07.224Z,99456.47
2023-10-30T19:44:36.002Z,99446.81
2023-10-30T19:47:04.743Z,99448.34
2023-10-30T19:49:35.054Z,99452.56
2023-10-30T19:52:06.245Z,99452.00
2023-10-30T19:54:36.192Z,99446.94
2023-10-30T19:57:04.860Z,99453.38
2023-10-30T19:59:34.528Z,99454.25
2023-10-30T20:02:03.602Z,99443.59
2023-10-30T20:04:31.941Z,99434.09
2023-10-30T20:07:00.402Z,99442.47
2023-10-30T20:09:38.298Z,99442.75
2023-10-30T20:12:14.220Z,99437.69
2023-10-30T20:14:44.072Z,99445.47
2023-10-30T20:17:12.267Z,99434.47
2023-10-30T20:19:40.477Z,99431.25
2023-10-30T20:22:08.817Z,99426.78
2023-10-30T20:24:38.358Z,99418.91
2023-10-30T20:27:06.643Z,99412.47
2023-10-30T20:29:34.903Z,99410.94
2023-10-30T20:32:06.228Z,99402.03
2023-10-30T20:34:34.608Z,99400.22
2023-10-30T20:37:03.033Z,99392.50
2023-10-30T20:39:31.374Z,99388.31
2023-10-30T20:41:59.947Z,99380.47
2023-10-30T20:44:28.728Z,99377.56
2023-10-30T20:46:56.977Z,99372.94
2023-10-30T20:49:26.575Z,99377.41
2023-10-30T20:51:55.897Z,99359.91
2023-10-30T20:54:24.173Z,99355.91
2023-10-30T20:56:52.520Z,99340.38
2023-10-30T20:59:20.784Z,99336.69
2023-10-30T21:01:50.921Z,99340.72
2023-10-30T21:04:19.335Z,99338.03
2023-10-30T21:06:49.192Z,99331.47
2023-10-30T21:09:17.597Z,99325.78
2023-10-30T21:11:47.479Z,99330.56
2023-10-30T21:14:15.880Z,99323.44
2023-10-30T21:16:44.291Z,99324.97
2023-10-30T21:19:12.815Z,99317.53
2023-10-30T21:21:41.161Z,99314.34
2023-10-30T21:24:10.845Z,99314.94
2023-10-30T21:26:39.063Z,99301.72
2023-10-30T21:29:07.410Z,99295.00
2023-10-30T21:31:35.664Z,99292.44
2023-10-30T21:34:03.990Z,99292.47
2023-10-30T21:36:32.180Z,99289.34
2023-10-30T21:39:01.744Z,99292.53
2023-10-30T21:41:31.332Z,99289.63
2023-10-30T21:44:00.783Z,99277.56
2023-10-30T21:46:30.878Z,99278.59
2023-10-30T21:48:59.432Z,99269.19
2023-10-30T21:51:27.725Z,99277.31
2023-10-30T21:54:00.084Z,99267.97
2023-10-30T21:56:28.753Z,99268.03
2023-10-30T21:58:58.370Z,99272.19
2023-10-30T22:01:26.769Z,99269.34
2023-10-30T22:03:55.132Z,99254.00
2023-10-30T22:06:23.380Z,99250.69
2023-10-30T22:08:51.833Z,99250.59
2023-10-30T22:11:20.203Z,99249.44
2023-10-30T22:13:49.594Z,99248.44
2023-10-30T22:16:19.236Z,99246.34
2023-10-30T22:18:47.573Z,99238.47
2023-10-30T22:21:15.790Z,99231.06
2023-10-30T22:23:44.166Z,99225.75
2023-10-30T22:26:12.499Z,99215.75
2023-10-30T22:28:40.756Z,99207.31
2023-10-30T22:31:09.112Z,99198.19
2023-10-30T22:33:39.150Z,99203.31
2023-10-30T22:36:08.135Z,99210.84
2023-10-30T22:38:36.395Z,99213.19
2023-10-30T22:41:05.238Z,99214.47
2023-10-30T22:43:33.489Z,99218.84
2023-10-30T22:46:01.758Z,99207.84
2023-10-30T22:48:30.102Z,99192.81
2023-10-30T22:50:59.655Z,99187.72
2023-10-30T22:53:27.842Z,99181.50
2023-10-30T22:55:56.401Z,99176.19
2023-10-30T22:58:24.725Z,99160.06
2023-10-30T23:00:53.163Z,99163.91
2023-10-30T23:03:21.584Z,99156.66
2023-10-30T23:05:49.833Z,99155.41
2023-10-30T23:08:19.584Z,99158.78
2023-10-30T23:10:48.091Z,99155.88
2023-10-30T23:13:16.399Z,99146.34
2023-10-30T23:15:44.617Z,99147.56
2023-10-30T23:18:12.858Z,99148.78
2023-10-30T23:20:41.109Z,99153.31
2023-10-30T23:23:09.459Z,99151.38
2023-10-30T23:25:40.264Z,99141.25
2023-10-30T23:28:08.755Z,99127.69
2023-10-30T23:30:37.535Z,99124.13
2023-10-30T23:33:05.930Z,99115.38
2023-10-30T23:35:34.760Z,99112.97
2023-10-30T23:38:08.266Z,99096.78
2023-10-30T23:40:42.903Z,99083.38
2023-10-30T23:43:11.165Z,99081.97
2023-10-30T23:45:39.362Z,99080.47
2023-10-30T23:48:07.786Z,99060.09
2023-10-30T23:50:36.031Z,99055.34
2023-10-30T23:53:04.399Z,99046.97
2023-10-30T23:55:33.030Z,99049.44
2023-10-30T23:58:02.923Z,99054.34
